createdAt,value
2023-03-17T00:01:54.734Z,97538.69
2023-03-17T00:04:33.804Z,97534.44
2023-03-17T00:07:02.454Z,97535.16
2023-03-17T00:09:29.250Z,97540.59
2023-03-17T00:12:03.922Z,97546.75
2023-03-17T00:14:31.138Z,97542.06
2023-03-17T00:16:57.662Z,97538.94
2023-03-17T00:19:35.237Z,97524.84
2023-03-17T00:22:03.206Z,97522.34
2023-03-17T00:24:30.185Z,97512.03
2023-03-17T00:27:03.283Z,97518.69
2023-03-17T00:29:29.774Z,97503.19
2023-03-17T00:31:57.663Z,97501.63
2023-03-17T00:34:24.389Z,97511.66
2023-03-17T00:36:51.709Z,97517.84
2023-03-17T00:39:18.903Z,97521.47
2023-03-17T00:44:14.560Z,97517.84
2023-03-17T00:46:41.720Z,97520.41
2023-03-17T00:49:21.582Z,97514.53
2023-03-17T00:51:48.809Z,97512.72
2023-03-17T00:54:16.891Z,97505.88
2023-03-17T00:56:48.349Z,97492.19
2023-03-17T00:59:26.614Z,97491.41
2023-03-17T01:01:55.667Z,97489.47
2023-03-17T01:04:23.989Z,97473.53
2023-03-17T01:06:52.300Z,97484.63
2023-03-17T01:09:24.335Z,97486.50
2023-03-17T01:11:50.821Z,97478.94
2023-03-17T01:14:17.842Z,97482.66
2023-03-17T01:16:46.541Z,97470.38
2023-03-17T01:19:13.761Z,97470.47
2023-03-17T01:21:41.653Z,97470.75
2023-03-17T01:24:14.779Z,97481.41
2023-03-17T01:26:41.597Z,97486.59
2023-03-17T01:29:10.443Z,97487.16
2023-03-17T01:31:37.741Z,97481.69
2023-03-17T01:34:04.391Z,97473.53
2023-03-17T01:36:30.886Z,97469.16
2023-03-17T01:38:57.652Z,97473.03
2023-03-17T01:41:27.560Z,97467.59
2023-03-17T01:43:54.193Z,97465.28
2023-03-17T01:46:35.836Z,97468.59
2023-03-17T01:49:25.013Z,97468.72
2023-03-17T01:52:16.547Z,97458.69
2023-03-17T01:54:50.612Z,97456.44
2023-03-17T01:57:25.272Z,97448.28
2023-03-17T02:00:02.003Z,97444.84
2023-03-17T02:02:40.965Z,97438.66
2023-03-17T02:05:10.944Z,97426.81
2023-03-17T02:07:38.546Z,97421.59
2023-03-17T02:10:08.255Z,97437.47
2023-03-17T02:12:35.646Z,97434.44
2023-03-17T02:15:05.384Z,97431.13
2023-03-17T02:17:32.341Z,97427.50
2023-03-17T02:20:19.940Z,97425.63
2023-03-17T02:22:54.985Z,97433.50
2023-03-17T02:25:24.859Z,97432.59
2023-03-17T02:27:58.357Z,97427.94
2023-03-17T02:30:29.659Z,97433.56
2023-03-17T02:32:56.336Z,97424.00
2023-03-17T02:35:23.534Z,97437.81
2023-03-17T02:37:50.514Z,97435.03
2023-03-17T02:40:17.482Z,97430.38
2023-03-17T02:42:51.108Z,97433.06
2023-03-17T02:45:18.078Z,97431.59
2023-03-17T02:47:44.595Z,97428.91
2023-03-17T02:50:20.339Z,97434.81
2023-03-17T02:52:46.773Z,97424.00
2023-03-17T02:55:13.185Z,97423.28
2023-03-17T02:57:40.064Z,97430.22
2023-03-17T03:00:10.413Z,97423.28
2023-03-17T03:02:38.148Z,97421.09
2023-03-17T03:05:08.362Z,97432.47
2023-03-17T03:07:36.858Z,97434.03
2023-03-17T03:10:04.255Z,97425.56
2023-03-17T03:12:32.643Z,97435.16
2023-03-17T03:14:59.573Z,97441.81
2023-03-17T03:17:26.396Z,97433.75
2023-03-17T03:20:03.963Z,97440.91
2023-03-17T03:22:37.341Z,97434.75
2023-03-17T03:25:04.302Z,97436.19
2023-03-17T03:27:34.290Z,97433.06
2023-03-17T03:30:01.245Z,97427.81
2023-03-17T03:32:27.844Z,97422.44
2023-03-17T03:34:54.540Z,97421.91
2023-03-17T03:37:27.231Z,97423.81
2023-03-17T03:39:58.201Z,97419.09
2023-03-17T03:42:24.722Z,97429.00
2023-03-17T03:44:51.437Z,97423.47
2023-03-17T03:47:18.052Z,97417.25
2023-03-17T03:49:46.988Z,97426.81
2023-03-17T03:52:13.453Z,97427.56
2023-03-17T03:54:41.749Z,97421.16
2023-03-17T03:57:08.343Z,97431.75
2023-03-17T03:59:34.842Z,97432.81
2023-03-17T04:02:09.604Z,97442.94
2023-03-17T04:04:36.344Z,97431.06
2023-03-17T04:07:03.173Z,97440.66
2023-03-17T04:09:31.534Z,97436.22
2023-03-17T04:11:58.000Z,97444.03
2023-03-17T04:14:24.516Z,97430.13
2023-03-17T04:16:51.268Z,97414.88
2023-03-17T04:19:22.220Z,97414.94
2023-03-17T04:21:48.787Z,97419.03
2023-03-17T04:24:15.440Z,97431.63
2023-03-17T04:26:42.271Z,97409.72
2023-03-17T04:29:10.705Z,97424.59
2023-03-17T04:31:39.571Z,97432.50
2023-03-17T04:34:06.244Z,97432.88
2023-03-17T04:36:33.061Z,97422.34
2023-03-17T04:38:59.756Z,97420.25
2023-03-17T04:41:26.259Z,97419.75
2023-03-17T04:43:52.979Z,97415.81
2023-03-17T04:46:19.840Z,97432.16
2023-03-17T04:48:49.725Z,97437.78
2023-03-17T04:51:17.138Z,97437.28
2023-03-17T04:53:45.044Z,97431.06
2023-03-17T04:56:12.075Z,97428.28
2023-03-17T04:58:42.390Z,97437.03
2023-03-17T05:01:10.772Z,97433.91
2023-03-17T05:03:37.359Z,97430.06
2023-03-17T05:06:05.068Z,97426.84
2023-03-17T05:08:32.062Z,97428.38
2023-03-17T05:11:03.384Z,97430.47
2023-03-17T05:13:30.050Z,97441.22
2023-03-17T05:15:57.296Z,97442.50
2023-03-17T05:18:25.510Z,97436.09
2023-03-17T05:20:52.112Z,97432.38
2023-03-17T05:23:26.611Z,97436.78
2023-03-17T05:25:53.738Z,97431.50
2023-03-17T05:28:21.028Z,97433.59
2023-03-17T05:30:57.051Z,97433.31
2023-03-17T05:33:24.809Z,97430.97
2023-03-17T05:36:06.061Z,97434.72
2023-03-17T05:38:32.573Z,97427.28
2023-03-17T05:40:59.164Z,97430.31
2023-03-17T05:43:27.788Z,97426.59
2023-03-17T05:45:54.722Z,97433.31
2023-03-17T05:48:23.126Z,97424.50
2023-03-17T05:50:50.037Z,97415.75
2023-03-17T05:53:17.607Z,97422.78
2023-03-17T05:55:44.619Z,97428.91
2023-03-17T05:58:13.441Z,97430.47
2023-03-17T06:00:42.120Z,97437.47
2023-03-17T06:03:08.860Z,97437.28
2023-03-17T06:05:35.779Z,97431.69
2023-03-17T06:08:05.762Z,97439.13
2023-03-17T06:10:33.195Z,97446.97
2023-03-17T06:13:03.276Z,97449.13
2023-03-17T06:15:30.926Z,97454.81
2023-03-17T06:17:57.726Z,97460.06
2023-03-17T06:20:34.463Z,97455.81
2023-03-17T06:23:05.848Z,97457.47
2023-03-17T06:25:34.339Z,97467.91
2023-03-17T06:28:02.842Z,97459.50
2023-03-17T06:30:30.700Z,97450.59
2023-03-17T06:32:57.280Z,97450.75
2023-03-17T06:35:26.484Z,97462.31
2023-03-17T06:37:53.093Z,97460.47
2023-03-17T06:40:19.697Z,97455.38
2023-03-17T06:42:46.573Z,97454.16
2023-03-17T06:45:13.196Z,97452.81
2023-03-17T06:47:42.083Z,97453.72
2023-03-17T06:50:09.985Z,97441.81
2023-03-17T06:52:37.733Z,97450.84
2023-03-17T06:55:08.580Z,97435.09
2023-03-17T06:57:38.630Z,97443.56
2023-03-17T07:00:06.939Z,97447.09
2023-03-17T07:02:34.171Z,97453.25
2023-03-17T07:05:03.161Z,97458.00
2023-03-17T07:07:29.890Z,97460.81
2023-03-17T07:09:56.356Z,97463.50
2023-03-17T07:12:27.435Z,97461.53
2023-03-17T07:14:54.196Z,97464.22
2023-03-17T07:17:20.800Z,97476.28
2023-03-17T07:19:47.450Z,97474.13
2023-03-17T07:22:13.973Z,97460.75
2023-03-17T07:24:43.218Z,97457.53
2023-03-17T07:27:12.111Z,97448.91
2023-03-17T07:29:39.171Z,97459.31
2023-03-17T07:32:08.192Z,97457.38
2023-03-17T07:34:35.947Z,97472.66
2023-03-17T07:37:03.022Z,97468.41
2023-03-17T07:39:29.649Z,97472.59
2023-03-17T07:41:56.366Z,97480.75
2023-03-17T07:44:24.179Z,97472.88
2023-03-17T07:46:51.596Z,97468.09
2023-03-17T07:49:38.061Z,97471.25
2023-03-17T07:52:08.456Z,97463.38
2023-03-17T07:54:43.365Z,97472.19
2023-03-17T07:57:10.892Z,97456.13
2023-03-17T07:59:38.322Z,97456.84
2023-03-17T08:02:11.157Z,97452.31
2023-03-17T08:04:37.672Z,97455.28
2023-03-17T08:07:06.346Z,97450.88
2023-03-17T08:09:33.688Z,97444.00
2023-03-17T08:12:00.179Z,97444.28
2023-03-17T08:14:26.641Z,97455.97
2023-03-17T08:16:54.332Z,97459.34
2023-03-17T08:19:28.535Z,97460.31
2023-03-17T08:21:54.998Z,97445.66
2023-03-17T08:24:21.773Z,97451.78
2023-03-17T08:26:49.465Z,97444.50
2023-03-17T08:29:18.598Z,97443.84
2023-03-17T08:31:47.419Z,97454.66
2023-03-17T08:34:14.154Z,97457.59
2023-03-17T08:36:40.983Z,97444.53
2023-03-17T08:39:09.448Z,97449.41
2023-03-17T08:41:36.944Z,97448.06
2023-03-17T08:44:03.887Z,97450.38
2023-03-17T08:46:33.814Z,97451.56
2023-03-17T08:49:00.960Z,97463.38
2023-03-17T08:51:32.016Z,97475.16
2023-03-17T08:54:01.464Z,97459.94
2023-03-17T08:56:28.453Z,97446.16
2023-03-17T08:58:55.227Z,97439.94
2023-03-17T09:01:28.876Z,97440.00
2023-03-17T09:03:56.038Z,97450.69
2023-03-17T09:06:23.273Z,97454.13
2023-03-17T09:08:57.337Z,97445.38
2023-03-17T09:11:27.649Z,97452.84
2023-03-17T09:13:55.520Z,97444.28
2023-03-17T09:16:24.231Z,97440.06
2023-03-17T09:18:51.337Z,97440.91
2023-03-17T09:21:18.143Z,97434.38
2023-03-17T09:23:44.777Z,97434.41
2023-03-17T09:26:12.609Z,97433.41
2023-03-17T09:28:42.871Z,97421.50
2023-03-17T09:31:11.902Z,97426.00
2023-03-17T09:33:40.669Z,97414.34
2023-03-17T09:36:08.607Z,97414.38
2023-03-17T09:38:45.282Z,97408.97
2023-03-17T09:41:16.196Z,97411.19
2023-03-17T09:44:01.344Z,97401.03
2023-03-17T09:46:55.010Z,97401.97
2023-03-17T09:49:27.598Z,97397.28
2023-03-17T09:51:54.246Z,97398.84
2023-03-17T09:54:35.227Z,97399.25
2023-03-17T09:57:16.765Z,97392.34
2023-03-17T09:59:47.581Z,97396.38
2023-03-17T10:02:17.972Z,97401.97
2023-03-17T10:04:46.260Z,97390.00
2023-03-17T10:07:19.450Z,97386.38
2023-03-17T10:10:01.321Z,97391.81
2023-03-17T10:12:45.798Z,97390.59
2023-03-17T10:15:25.500Z,97389.91
2023-03-17T10:17:53.462Z,97389.91
2023-03-17T10:20:30.458Z,97381.34
2023-03-17T10:23:02.227Z,97376.59
2023-03-17T10:25:33.013Z,97370.41
2023-03-17T10:28:09.553Z,97369.72
2023-03-17T10:30:36.385Z,97365.84
2023-03-17T10:33:07.225Z,97354.78
2023-03-17T10:35:36.695Z,97342.19
2023-03-17T10:38:16.285Z,97344.50
2023-03-17T10:40:47.867Z,97358.47
2023-03-17T10:43:20.658Z,97370.03
2023-03-17T10:46:17.132Z,97373.66
2023-03-17T10:48:51.242Z,97360.03
2023-03-17T10:51:33.620Z,97351.19
2023-03-17T10:54:17.583Z,97342.47
2023-03-17T10:56:48.942Z,97354.50
2023-03-17T10:59:19.947Z,97341.31
2023-03-17T11:02:16.373Z,97351.91
2023-03-17T11:04:43.384Z,97354.38
2023-03-17T11:07:16.328Z,97361.94
2023-03-17T11:09:50.070Z,97363.16
2023-03-17T11:12:36.577Z,97362.94
2023-03-17T11:15:07.397Z,97358.94
2023-03-17T11:17:58.139Z,97353.19
2023-03-17T11:20:33.154Z,97348.63
2023-03-17T11:23:24.123Z,97335.22
2023-03-17T11:26:19.176Z,97335.22
2023-03-17T11:28:57.325Z,97325.06
2023-03-17T11:31:33.373Z,97327.50
2023-03-17T11:34:08.969Z,97345.22
2023-03-17T11:37:13.617Z,97329.16
2023-03-17T11:40:02.921Z,97323.25
2023-03-17T11:43:17.775Z,97329.88
2023-03-17T11:45:52.536Z,97327.56
2023-03-17T11:48:51.206Z,97315.47
2023-03-17T11:51:38.056Z,97316.44
2023-03-17T11:54:15.076Z,97337.09
2023-03-17T11:57:03.494Z,97324.94
2023-03-17T11:59:42.532Z,97323.31
2023-03-17T12:02:36.962Z,97318.44
2023-03-17T12:05:06.522Z,97302.44
2023-03-17T12:07:53.342Z,97304.13
2023-03-17T12:10:36.602Z,97317.97
2023-03-17T12:13:15.486Z,97317.63
2023-03-17T12:15:47.659Z,97314.91
2023-03-17T12:18:32.797Z,97310.66
2023-03-17T12:21:16.331Z,97304.44
2023-03-17T12:23:56.381Z,97294.84
2023-03-17T12:26:38.028Z,97302.28
2023-03-17T12:29:13.568Z,97300.88
2023-03-17T12:31:54.177Z,97288.97
2023-03-17T12:34:39.315Z,97307.31
2023-03-17T12:37:07.793Z,97306.59
2023-03-17T12:39:37.177Z,97254.25
2023-03-17T12:42:21.404Z,97257.25
2023-03-17T12:44:56.331Z,97289.91
2023-03-17T12:47:58.692Z,97279.06
2023-03-17T12:51:09.026Z,97260.84
2023-03-17T12:53:46.684Z,97258.19
2023-03-17T12:56:46.510Z,97267.25
2023-03-17T12:59:26.431Z,97271.25
2023-03-17T13:01:57.683Z,97259.13
2023-03-17T13:04:38.259Z,97257.34
2023-03-17T13:07:18.220Z,97257.03
2023-03-17T13:09:57.612Z,97238.72
2023-03-17T13:12:43.506Z,97241.81
2023-03-17T13:15:25.327Z,97237.53
2023-03-17T13:18:10.661Z,97243.84
2023-03-17T13:20:40.451Z,97234.03
2023-03-17T13:23:09.864Z,97222.78
2023-03-17T13:25:39.330Z,97220.38
2023-03-17T13:28:17.394Z,97226.00
2023-03-17T13:31:26.606Z,97231.22
2023-03-17T13:33:56.776Z,97231.06
2023-03-17T13:36:32.057Z,97225.38
2023-03-17T13:39:39.158Z,97225.03
2023-03-17T13:42:17.936Z,97221.03
2023-03-17T13:45:06.429Z,97218.91
2023-03-17T13:47:35.158Z,97218.84
2023-03-17T13:50:24.248Z,97226.44
2023-03-17T13:53:17.367Z,97220.47
2023-03-17T13:56:19.665Z,97218.84
2023-03-17T13:59:09.637Z,97212.53
2023-03-17T14:01:43.192Z,97213.75
2023-03-17T14:04:18.578Z,97207.84
2023-03-17T14:06:46.768Z,97216.28
2023-03-17T14:09:36.735Z,97207.06
2023-03-17T14:12:12.453Z,97202.22
2023-03-17T14:14:55.142Z,97207.16
2023-03-17T14:17:30.679Z,97207.25
2023-03-17T14:20:08.703Z,97207.84
2023-03-17T14:22:45.574Z,97215.78
2023-03-17T14:25:24.715Z,97215.97
2023-03-17T14:28:02.526Z,97216.88
2023-03-17T14:30:31.479Z,97222.34
2023-03-17T14:33:31.251Z,97220.28
2023-03-17T14:36:01.969Z,97220.66
2023-03-17T14:38:32.818Z,97219.28
2023-03-17T14:41:27.153Z,97217.19
2023-03-17T14:44:00.310Z,97222.84
2023-03-17T14:46:31.998Z,97212.28
2023-03-17T14:49:03.148Z,97207.41
2023-03-17T14:51:39.193Z,97218.66
2023-03-17T14:54:18.420Z,97220.72
2023-03-17T14:56:59.995Z,97220.13
2023-03-17T14:59:49.083Z,97223.88
2023-03-17T15:02:32.404Z,97216.22
2023-03-17T15:05:04.424Z,97214.94
2023-03-17T15:07:42.257Z,97216.03
2023-03-17T15:10:16.593Z,97212.00
2023-03-17T15:12:46.371Z,97216.91
2023-03-17T15:15:28.398Z,97222.38
2023-03-17T15:17:58.894Z,97218.00
2023-03-17T15:20:25.895Z,97218.00
2023-03-17T15:22:55.458Z,97221.28
2023-03-17T15:25:38.206Z,97217.13
2023-03-17T15:28:21.184Z,97219.19
2023-03-17T15:30:54.196Z,97218.63
2023-03-17T15:33:30.506Z,97232.38
2023-03-17T15:35:57.252Z,97228.03
2023-03-17T15:38:24.686Z,97229.88
2023-03-17T15:40:51.204Z,97222.78
2023-03-17T15:43:21.602Z,97224.00
2023-03-17T15:45:54.335Z,97218.53
2023-03-17T15:48:28.331Z,97215.47
2023-03-17T15:50:56.876Z,97214.34
2023-03-17T15:53:23.569Z,97220.38
2023-03-17T15:55:51.914Z,97219.25
2023-03-17T15:58:18.823Z,97217.91
2023-03-17T16:00:51.454Z,97219.28
2023-03-17T16:03:22.205Z,97222.22
2023-03-17T16:05:48.732Z,97217.38
2023-03-17T16:08:17.867Z,97229.28
2023-03-17T16:10:45.593Z,97219.72
2023-03-17T16:13:12.517Z,97221.44
2023-03-17T16:15:41.683Z,97220.09
2023-03-17T16:18:14.911Z,97218.75
2023-03-17T16:20:43.869Z,97215.31
2023-03-17T16:23:37.499Z,97209.38
2023-03-17T16:26:15.044Z,97219.34
2023-03-17T16:28:45.562Z,97216.91
2023-03-17T16:31:24.977Z,97217.88
2023-03-17T16:33:53.668Z,97211.06
2023-03-17T16:36:23.397Z,97216.00
2023-03-17T16:38:50.928Z,97217.78
2023-03-17T16:41:29.059Z,97220.41
2023-03-17T16:44:01.200Z,97222.59
2023-03-17T16:46:35.177Z,97229.78
2023-03-17T16:49:04.718Z,97227.28
2023-03-17T16:51:31.482Z,97231.34
2023-03-17T16:53:59.784Z,97225.69
2023-03-17T16:56:27.657Z,97238.66
2023-03-17T16:58:54.163Z,97237.66
2023-03-17T17:01:24.918Z,97241.34
2023-03-17T17:03:51.559Z,97240.78
2023-03-17T17:06:19.702Z,97243.69
2023-03-17T17:08:49.274Z,97249.31
2023-03-17T17:11:17.537Z,97256.47
2023-03-17T17:13:46.428Z,97255.47
2023-03-17T17:16:25.607Z,97260.31
2023-03-17T17:18:52.212Z,97264.31
2023-03-17T17:21:18.691Z,97269.88
2023-03-17T17:23:47.734Z,97270.78
2023-03-17T17:26:14.600Z,97267.47
2023-03-17T17:28:41.257Z,97268.72
2023-03-17T17:31:17.783Z,97260.25
2023-03-17T17:33:44.331Z,97262.00
2023-03-17T17:36:16.220Z,97273.75
2023-03-17T17:38:43.311Z,97272.34
2023-03-17T17:41:11.749Z,97277.53
2023-03-17T17:43:38.880Z,97283.06
2023-03-17T17:46:11.766Z,97281.22
2023-03-17T17:48:43.224Z,97287.91
2023-03-17T17:51:09.862Z,97286.03
2023-03-17T17:53:38.667Z,97295.84
2023-03-17T17:56:05.571Z,97294.72
2023-03-17T17:58:32.306Z,97297.84
2023-03-17T18:01:08.618Z,97296.75
2023-03-17T18:03:41.599Z,97297.22
2023-03-17T18:06:10.258Z,97302.66
2023-03-17T18:08:40.656Z,97306.63
2023-03-17T18:11:07.584Z,97301.22
2023-03-17T18:13:36.152Z,97309.78
2023-03-17T18:16:06.117Z,97298.19
2023-03-17T18:18:36.448Z,97306.75
2023-03-17T18:21:03.039Z,97309.16
2023-03-17T18:23:35.906Z,97316.16
2023-03-17T18:26:04.516Z,97306.91
2023-03-17T18:28:31.240Z,97314.66
2023-03-17T18:31:11.346Z,97314.69
2023-03-17T18:33:40.660Z,97314.72
2023-03-17T18:36:08.879Z,97319.38
2023-03-17T18:38:36.417Z,97315.53
2023-03-17T18:41:04.481Z,97303.16
2023-03-17T18:43:31.498Z,97306.28
2023-03-17T18:45:58.354Z,97311.72
2023-03-17T18:48:25.027Z,97314.81
2023-03-17T18:50:51.759Z,97313.31
2023-03-17T18:53:20.424Z,97313.28
2023-03-17T18:55:47.306Z,97316.44
2023-03-17T18:58:14.024Z,97317.22
2023-03-17T19:00:41.603Z,97314.13
2023-03-17T19:03:08.454Z,97318.78
2023-03-17T19:05:39.640Z,97329.59
2023-03-17T19:08:06.960Z,97322.66
2023-03-17T19:10:34.269Z,97321.13
2023-03-17T19:13:05.313Z,97323.44
2023-03-17T19:15:34.075Z,97323.06
2023-03-17T19:18:01.254Z,97314.16
2023-03-17T19:20:28.191Z,97322.28
2023-03-17T19:22:54.895Z,97318.81
2023-03-17T19:25:22.091Z,97325.75
2023-03-17T19:27:49.362Z,97321.13
2023-03-17T19:30:16.413Z,97323.44
2023-03-17T19:32:43.266Z,97329.59
2023-03-17T19:35:09.919Z,97335.78
2023-03-17T19:37:38.070Z,97341.22
2023-03-17T19:40:08.178Z,97342.75
2023-03-17T19:42:35.136Z,97336.94
2023-03-17T19:45:06.252Z,97344.66
2023-03-17T19:47:32.735Z,97348.91
2023-03-17T19:49:59.295Z,97350.03
2023-03-17T19:52:27.604Z,97352.75
2023-03-17T19:54:54.121Z,97355.44
2023-03-17T19:57:20.995Z,97351.56
2023-03-17T19:59:47.840Z,97352.72
2023-03-17T20:02:16.022Z,97357.75
2023-03-17T20:04:43.063Z,97349.22
2023-03-17T20:07:12.434Z,97358.50
2023-03-17T20:09:44.572Z,97363.50
2023-03-17T20:12:11.096Z,97369.25
2023-03-17T20:14:39.323Z,97376.97
2023-03-17T20:17:05.780Z,97374.25
2023-03-17T20:19:32.627Z,97376.19
2023-03-17T20:21:59.297Z,97380.41
2023-03-17T20:24:29.172Z,97381.94
2023-03-17T20:26:58.000Z,97382.31
2023-03-17T20:29:24.609Z,97388.09
2023-03-17T20:31:51.536Z,97395.41
2023-03-17T20:34:18.044Z,97399.63
2023-03-17T20:36:50.435Z,97391.13
2023-03-17T20:39:19.964Z,97399.59
2023-03-17T20:41:48.297Z,97396.50
2023-03-17T20:44:15.840Z,97402.28
2023-03-17T20:46:42.651Z,97406.53
2023-03-17T20:49:09.849Z,97400.31
2023-03-17T20:51:37.300Z,97405.31
2023-03-17T20:54:04.361Z,97408.72
2023-03-17T20:56:33.737Z,97403.66
2023-03-17T20:59:06.940Z,97406.75
2023-03-17T21:01:35.813Z,97402.06
2023-03-17T21:04:05.791Z,97405.47
2023-03-17T21:06:34.259Z,97407.38
2023-03-17T21:09:01.538Z,97411.56
2023-03-17T21:11:28.205Z,97415.34
2023-03-17T21:13:57.222Z,97418.00
2023-03-17T21:16:32.762Z,97427.13
2023-03-17T21:19:00.234Z,97431.66
2023-03-17T21:21:27.363Z,97428.56
2023-03-17T21:23:54.764Z,97424.31
2023-03-17T21:26:23.136Z,97430.81
2023-03-17T21:28:52.590Z,97437.31
2023-03-17T21:31:19.180Z,97439.94
2023-03-17T21:33:50.713Z,97446.81
2023-03-17T21:36:17.729Z,97443.22
2023-03-17T21:38:44.207Z,97453.09
2023-03-17T21:41:25.936Z,97443.06
2023-03-17T21:43:52.439Z,97443.38
2023-03-17T21:46:18.923Z,97442.19
2023-03-17T21:48:47.285Z,97446.00
2023-03-17T21:51:13.813Z,97440.19
2023-03-17T21:53:42.338Z,97442.06
2023-03-17T21:56:10.727Z,97440.50
2023-03-17T21:58:38.520Z,97449.72
2023-03-17T22:01:05.503Z,97446.22
2023-03-17T22:03:36.313Z,97446.22
2023-03-17T22:06:06.508Z,97455.78
2023-03-17T22:08:33.317Z,97459.22
2023-03-17T22:11:00.303Z,97453.81
2023-03-17T22:13:27.203Z,97459.97
2023-03-17T22:15:54.007Z,97459.56
2023-03-17T22:18:20.691Z,97462.19
2023-03-17T22:20:47.446Z,97460.22
2023-03-17T22:23:14.274Z,97463.28
2023-03-17T22:25:47.378Z,97464.06
2023-03-17T22:28:13.929Z,97467.47
2023-03-17T22:30:41.221Z,97468.22
2023-03-17T22:33:08.316Z,97467.41
2023-03-17T22:35:36.411Z,97467.38
2023-03-17T22:38:03.007Z,97468.13
2023-03-17T22:40:31.600Z,97465.31
2023-03-17T22:42:59.196Z,97465.25
2023-03-17T22:45:28.023Z,97462.09
2023-03-17T22:47:56.380Z,97470.47
2023-03-17T22:50:23.742Z,97480.44
2023-03-17T22:52:52.180Z,97474.97
2023-03-17T22:55:18.805Z,97485.75
2023-03-17T22:57:45.687Z,97477.25
2023-03-17T23:00:16.903Z,97481.84
2023-03-17T23:02:47.338Z,97482.28
2023-03-17T23:05:14.616Z,97489.53
2023-03-17T23:07:50.357Z,97484.88
2023-03-17T23:10:24.691Z,97488.69
2023-03-17T23:12:51.692Z,97490.94
2023-03-17T23:15:19.757Z,97498.59
2023-03-17T23:17:47.705Z,97497.03
2023-03-17T23:20:15.143Z,97493.16
2023-03-17T23:22:41.743Z,97499.25
2023-03-17T23:25:10.599Z,97511.50
2023-03-17T23:27:39.666Z,97505.75
2023-03-17T23:30:06.903Z,97512.31
2023-03-17T23:32:40.150Z,97506.19
2023-03-17T23:35:07.176Z,97512.34
2023-03-17T23:37:33.649Z,97513.91
2023-03-17T23:40:11.242Z,97512.00
2023-03-17T23:42:38.059Z,97506.19
2023-03-17T23:45:08.704Z,97516.97
2023-03-17T23:47:41.465Z,97514.63
2023-03-17T23:50:09.224Z,97522.25
2023-03-17T23:52:36.357Z,97534.09
2023-03-17T23:55:12.220Z,97529.81
2023-03-17T23:57:39.219Z,97533.22
